sensor_id;sensor_type;location;lat;lon;timestamp;pressure;altitude;pressure_sealevel;temperature;humidity
53522;BME280;39398;48.382;9.802;2022-11-20T00:00:55;93221.31;;;3.84;100.00
53522;BME280;39398;48.382;9.802;2022-11-20T00:01:56;93225.09;;;3.65;100.00
53522;BME280;39398;48.382;9.802;2022-11-20T00:02:58;93223.09;;;3.84;100.00
53522;BME280;39398;48.382;9.802;2022-11-20T00:03:59;93229.03;;;3.53;100.00
53522;BME280;39398;48.382;9.802;2022-11-20T00:05:01;93228.38;;;3.59;100.00
53522;BME280;39398;48.382;9.802;2022-11-20T00:06:04;93227.38;;;3.77;100.00
53522;BME280;39398;48.382;9.802;2022-11-20T00:07:06;93221.13;;;3.86;100.00
53522;BME280;39398;48.382;9.802;2022-11-20T00:08:08;93229.53;;;3.65;100.00
53522;BME280;39398;48.382;9.802;2022-11-20T00:09:09;93236.06;;;3.44;100.00
53522;BME280;39398;48.382;9.802;2022-11-20T00:10:11;93227.06;;;3.63;100.00
53522;BME280;39398;48.382;9.802;2022-11-20T00:11:14;93225.25;;;3.80;100.00
53522;BME280;39398;48.382;9.802;2022-11-20T00:12:17;93228.19;;;3.77;100.00
53522;BME280;39398;48.382;9.802;2022-11-20T00:13:18;93234.38;;;3.76;100.00
53522;BME280;39398;48.382;9.802;2022-11-20T00:14:21;93230.13;;;3.75;100.00
53522;BME280;39398;48.382;9.802;2022-11-20T00:15:22;93229.81;;;3.70;100.00
53522;BME280;39398;48.382;9.802;2022-11-20T00:16:25;93234.56;;;3.75;100.00
53522;BME280;39398;48.382;9.802;2022-11-20T00:17:27;93232.41;;;3.86;100.00
53522;BME280;39398;48.382;9.802;2022-11-20T00:18:29;93235.03;;;3.78;100.00
53522;BME280;39398;48.382;9.802;2022-11-20T00:19:31;93231.47;;;3.63;100.00
53522;BME280;39398;48.382;9.802;2022-11-20T00:20:32;93228.81;;;3.79;100.00
53522;BME280;39398;48.382;9.802;2022-11-20T00:21:34;93236.22;;;3.59;100.00
53522;BME280;39398;48.382;9.802;2022-11-20T00:22:35;93232.94;;;3.65;100.00
53522;BME280;39398;48.382;9.802;2022-11-20T00:23:36;93238.16;;;3.73;100.00
53522;BME280;39398;48.382;9.802;2022-11-20T00:24:38;93231.78;;;3.68;100.00
53522;BME280;39398;48.382;9.802;2022-11-20T00:25:43;93235.53;;;3.73;100.00
53522;BME280;39398;48.382;9.802;2022-11-20T00:26:45;93235.72;;;3.64;100.00
53522;BME280;39398;48.382;9.802;2022-11-20T00:27:46;93237.66;;;3.70;100.00
53522;BME280;39398;48.382;9.802;2022-11-20T00:28:50;93237.69;;;3.62;100.00
53522;BME280;39398;48.382;9.802;2022-11-20T00:29:53;93230.50;;;3.64;100.00
53522;BME280;39398;48.382;9.802;2022-11-20T00:31:00;93232.91;;;3.82;100.00
53522;BME280;39398;48.382;9.802;2022-11-20T00:32:02;93232.94;;;3.65;100.00
53522;BME280;39398;48.382;9.802;2022-11-20T00:33:03;93237.69;;;3.54;100.00
53522;BME280;39398;48.382;9.802;2022-11-20T00:34:05;93239.31;;;3.63;100.00
53522;BME280;39398;48.382;9.802;2022-11-20T00:35:07;93238.63;;;3.69;100.00
53522;BME280;39398;48.382;9.802;2022-11-20T00:36:10;93236.97;;;3.92;100.00
53522;BME280;39398;48.382;9.802;2022-11-20T00:37:12;93238.25;;;3.96;100.00
53522;BME280;39398;48.382;9.802;2022-11-20T00:38:13;93232.22;;;3.88;100.00
53522;BME280;39398;48.382;9.802;2022-11-20T00:39:15;93246.41;;;3.93;100.00
53522;BME280;39398;48.382;9.802;2022-11-20T00:40:16;93244.63;;;3.86;100.00
53522;BME280;39398;48.382;9.802;2022-11-20T00:41:18;93251.97;;;3.82;100.00
53522;BME280;39398;48.382;9.802;2022-11-20T00:42:19;93244.19;;;3.74;100.00
53522;BME280;39398;48.382;9.802;2022-11-20T00:43:21;93244.28;;;3.97;100.00
53522;BME280;39398;48.382;9.802;2022-11-20T00:44:22;93252.56;;;4.09;100.00
53522;BME280;39398;48.382;9.802;2022-11-20T00:45:25;93249.75;;;4.18;99.67
53522;BME280;39398;48.382;9.802;2022-11-20T00:46:27;93250.63;;;4.03;100.00
53522;BME280;39398;48.382;9.802;2022-11-20T00:47:29;93254.72;;;4.05;100.00
53522;BME280;39398;48.382;9.802;2022-11-20T00:48:31;93252.06;;;4.13;100.00
53522;BME280;39398;48.382;9.802;2022-11-20T00:49:32;93255.81;;;4.11;100.00
53522;BME280;39398;48.382;9.802;2022-11-20T00:50:34;93260.75;;;3.97;100.00
53522;BME280;39398;48.382;9.802;2022-11-20T00:51:35;93261.56;;;4.06;100.00
53522;BME280;39398;48.382;9.802;2022-11-20T00:52:37;93256.63;;;4.11;100.00
53522;BME280;39398;48.382;9.802;2022-11-20T00:53:38;93255.19;;;4.09;100.00
53522;BME280;39398;48.382;9.802;2022-11-20T00:54:40;93258.22;;;4.20;99.85
53522;BME280;39398;48.382;9.802;2022-11-20T00:55:41;93267.72;;;4.22;99.97
53522;BME280;39398;48.382;9.802;2022-11-20T00:56:42;93262.81;;;4.18;98.67
53522;BME280;39398;48.382;9.802;2022-11-20T00:57:44;93264.09;;;4.23;99.98
53522;BME280;39398;48.382;9.802;2022-11-20T00:58:47;93254.00;;;4.11;100.00
53522;BME280;39398;48.382;9.802;2022-11-20T00:59:49;93257.94;;;4.15;100.00
53522;BME280;39398;48.382;9.802;2022-11-20T01:00:52;93257.47;;;4.12;100.00
53522;BME280;39398;48.382;9.802;2022-11-20T01:01:53;93266.75;;;4.14;99.39
53522;BME280;39398;48.382;9.802;2022-11-20T01:02:55;93268.38;;;4.15;99.74
53522;BME280;39398;48.382;9.802;2022-11-20T01:03:58;93263.03;;;4.09;99.34
53522;BME280;39398;48.382;9.802;2022-11-20T01:05:00;93264.31;;;4.13;100.00
53522;BME280;39398;48.382;9.802;2022-11-20T01:06:02;93264.66;;;4.02;99.99
53522;BME280;39398;48.382;9.802;2022-11-20T01:07:04;93260.41;;;4.09;99.53
53522;BME280;39398;48.382;9.802;2022-11-20T01:08:05;93261.69;;;4.13;98.80
53522;BME280;39398;48.382;9.802;2022-11-20T01:09:12;93262.34;;;4.15;99.29
53522;BME280;39398;48.382;9.802;2022-11-20T01:10:13;93264.63;;;4.18;98.85
53522;BME280;39398;48.382;9.802;2022-11-20T01:11:17;93267.88;;;4.20;98.04
53522;BME280;39398;48.382;9.802;2022-11-20T01:12:18;93261.19;;;4.17;98.25
53522;BME280;39398;48.382;9.802;2022-11-20T01:13:20;93262.34;;;4.15;100.00
53522;BME280;39398;48.382;9.802;2022-11-20T01:14:26;93259.69;;;4.23;100.00
53522;BME280;39398;48.382;9.802;2022-11-20T01:15:27;93262.56;;;4.05;100.00
53522;BME280;39398;48.382;9.802;2022-11-20T01:16:32;93261.03;;;4.11;98.97
53522;BME280;39398;48.382;9.802;2022-11-20T01:17:33;93264.63;;;4.18;100.00
53522;BME280;39398;48.382;9.802;2022-11-20T01:18:36;93260.13;;;3.87;98.99
53522;BME280;39398;48.382;9.802;2022-11-20T01:19:37;93260.88;;;4.12;99.98
53522;BME280;39398;48.382;9.802;2022-11-20T01:20:39;93262.84;;;4.10;98.53
53522;BME280;39398;48.382;9.802;2022-11-20T01:21:42;93267.13;;;3.95;99.75
53522;BME280;39398;48.382;9.802;2022-11-20T01:22:44;93264.38;;;3.96;99.05
53522;BME280;39398;48.382;9.802;2022-11-20T01:23:46;93265.97;;;3.97;99.61
53522;BME280;39398;48.382;9.802;2022-11-20T01:24:48;93274.38;;;3.68;100.00
53522;BME280;39398;48.382;9.802;2022-11-20T01:25:49;93268.91;;;4.03;100.00
53522;BME280;39398;48.382;9.802;2022-11-20T01:26:51;93266.63;;;4.00;98.35
53522;BME280;39398;48.382;9.802;2022-11-20T01:27:53;93271.25;;;3.81;99.09
53522;BME280;39398;48.382;9.802;2022-11-20T01:28:55;93271.69;;;4.01;100.00
53522;BME280;39398;48.382;9.802;2022-11-20T01:29:57;93279.22;;;3.88;100.00
53522;BME280;39398;48.382;9.802;2022-11-20T01:31:10;93269.44;;;3.82;99.46
53522;BME280;39398;48.382;9.802;2022-11-20T01:32:13;93274.38;;;3.77;99.89
53522;BME280;39398;48.382;9.802;2022-11-20T01:33:14;93276.81;;;3.78;100.00
53522;BME280;39398;48.382;9.802;2022-11-20T01:34:18;93282.34;;;3.83;100.00
53522;BME280;39398;48.382;9.802;2022-11-20T01:35:19;93279.13;;;3.65;100.00
53522;BME280;39398;48.382;9.802;2022-11-20T01:36:24;93279.44;;;3.54;100.00
53522;BME280;39398;48.382;9.802;2022-11-20T01:37:26;93275.31;;;3.84;100.00
53522;BME280;39398;48.382;9.802;2022-11-20T01:38:27;93279.41;;;3.78;100.00
53522;BME280;39398;48.382;9.802;2022-11-20T01:39:28;93281.34;;;3.92;100.00
53522;BME280;39398;48.382;9.802;2022-11-20T01:40:30;93278.31;;;3.64;99.23
53522;BME280;39398;48.382;9.802;2022-11-20T01:41:33;93276.66;;;3.63;100.00
53522;BME280;39398;48.382;9.802;2022-11-20T01:42:35;93279.59;;;3.68;99.79
53522;BME280;39398;48.382;9.802;2022-11-20T01:43:36;93277.16;;;3.50;99.33
53522;BME280;39398;48.382;9.802;2022-11-20T01:44:53;93276.66;;;3.71;100.00
53522;BME280;39398;48.382;9.802;2022-11-20T01:46:00;93280.41;;;3.69;98.69
53522;BME280;39398;48.382;9.802;2022-11-20T01:47:03;93278.97;;;3.58;98.52
53522;BME280;39398;48.382;9.802;2022-11-20T01:48:07;93278.13;;;3.74;98.35
53522;BME280;39398;48.382;9.802;2022-11-20T01:49:11;93282.22;;;3.44;99.12
53522;BME280;39398;48.382;9.802;2022-11-20T01:50:18;93285.66;;;3.61;99.76
53522;BME280;39398;48.382;9.802;2022-11-20T01:51:28;93278.59;;;3.69;99.62
53522;BME280;39398;48.382;9.802;2022-11-20T01:52:33;93284.47;;;3.71;100.00
53522;BME280;39398;48.382;9.802;2022-11-20T01:53:36;93278.66;;;3.45;100.00
53522;BME280;39398;48.382;9.802;2022-11-20T01:54:40;93283.66;;;3.71;100.00
53522;BME280;39398;48.382;9.802;2022-11-20T01:55:46;93282.69;;;3.72;100.00
53522;BME280;39398;48.382;9.802;2022-11-20T01:56:51;93278.44;;;3.63;99.64
53522;BME280;39398;48.382;9.802;2022-11-20T01:57:53;93280.41;;;3.77;98.98
53522;BME280;39398;48.382;9.802;2022-11-20T01:58:57;93282.03;;;3.54;99.62
53522;BME280;39398;48.382;9.802;2022-11-20T02:00:02;93273.91;;;3.48;99.38
53522;BME280;39398;48.382;9.802;2022-11-20T02:01:04;93281.56;;;3.58;100.00
53522;BME280;39398;48.382;9.802;2022-11-20T02:02:06;93279.91;;;3.65;99.50
53522;BME280;39398;48.382;9.802;2022-11-20T02:03:11;93289.72;;;3.31;100.00
53522;BME280;39398;48.382;9.802;2022-11-20T02:04:15;93288.59;;;3.33;99.86
53522;BME280;39398;48.382;9.802;2022-11-20T02:05:22;93287.44;;;3.44;100.00
53522;BME280;39398;48.382;9.802;2022-11-20T02:06:26;93280.09;;;3.56;100.00
53522;BME280;39398;48.382;9.802;2022-11-20T02:07:29;93280.59;;;3.59;100.00
53522;BME280;39398;48.382;9.802;2022-11-20T02:08:32;93277.63;;;3.54;100.00
53522;BME280;39398;48.382;9.802;2022-11-20T02:09:33;93282.72;;;3.56;100.00
53522;BME280;39398;48.382;9.802;2022-11-20T02:10:35;93282.19;;;3.60;100.00
53522;BME280;39398;48.382;9.802;2022-11-20T02:11:36;93283.03;;;3.53;99.74
53522;BME280;39398;48.382;9.802;2022-11-20T02:12:38;93280.75;;;3.58;98.52
53522;BME280;39398;48.382;9.802;2022-11-20T02:13:40;93281.41;;;3.52;97.75
53522;BME280;39398;48.382;9.802;2022-11-20T02:14:41;93274.72;;;3.49;97.92
53522;BME280;39398;48.382;9.802;2022-11-20T02:15:43;93273.88;;;3.57;100.00
53522;BME280;39398;48.382;9.802;2022-11-20T02:16:46;93275.69;;;3.56;99.80
53522;BME280;39398;48.382;9.802;2022-11-20T02:17:48;93279.47;;;3.45;100.00
53522;BME280;39398;48.382;9.802;2022-11-20T02:18:52;93281.59;;;3.42;99.53
53522;BME280;39398;48.382;9.802;2022-11-20T02:19:54;93279.63;;;3.52;100.00
53522;BME280;39398;48.382;9.802;2022-11-20T02:21:00;93279.78;;;3.42;100.00
53522;BME280;39398;48.382;9.802;2022-11-20T02:22:07;93281.75;;;3.32;99.98
53522;BME280;39398;48.382;9.802;2022-11-20T02:23:16;93282.41;;;3.10;99.87
53522;BME280;39398;48.382;9.802;2022-11-20T02:24:21;93285.00;;;3.18;99.55
53522;BME280;39398;48.382;9.802;2022-11-20T02:25:24;93286.94;;;3.08;100.00
53522;BME280;39398;48.382;9.802;2022-11-20T02:26:28;93292.63;;;3.03;100.00
53522;BME280;39398;48.382;9.802;2022-11-20T02:27:30;93290.03;;;3.03;100.00
53522;BME280;39398;48.382;9.802;2022-11-20T02:28:32;93289.72;;;2.98;100.00
53522;BME280;39398;48.382;9.802;2022-11-20T02:29:37;93285.31;;;2.98;100.00
53522;BME280;39398;48.382;9.802;2022-11-20T02:30:39;93291.03;;;2.94;100.00
53522;BME280;39398;48.382;9.802;2022-11-20T02:31:42;93288.22;;;2.95;100.00
53522;BME280;39398;48.382;9.802;2022-11-20T02:32:44;93283.66;;;2.89;100.00
53522;BME280;39398;48.382;9.802;2022-11-20T02:33:46;93288.41;;;2.94;100.00
53522;BME280;39398;48.382;9.802;2022-11-20T02:34:47;93288.09;;;2.97;100.00
53522;BME280;39398;48.382;9.802;2022-11-20T02:35:49;93289.19;;;2.78;100.00
53522;BME280;39398;48.382;9.802;2022-11-20T02:36:52;93286.09;;;2.83;100.00
53522;BME280;39398;48.382;9.802;2022-11-20T02:37:55;93291.13;;;2.76;100.00
53522;BME280;39398;48.382;9.802;2022-11-20T02:38:57;93293.56;;;2.77;100.00
53522;BME280;39398;48.382;9.802;2022-11-20T02:40:00;93294.41;;;2.78;100.00
53522;BME280;39398;48.382;9.802;2022-11-20T02:41:01;93290.16;;;2.77;100.00
53522;BME280;39398;48.382;9.802;2022-11-20T02:42:03;93297.66;;;2.72;100.00
53522;BME280;39398;48.382;9.802;2022-11-20T02:43:05;93299.13;;;2.83;100.00
53522;BME280;39398;48.382;9.802;2022-11-20T02:44:06;93292.75;;;2.77;100.00
53522;BME280;39398;48.382;9.802;2022-11-20T02:45:08;93293.38;;;2.63;100.00
53522;BME280;39398;48.382;9.802;2022-11-20T02:46:10;93287.72;;;2.75;100.00
53522;BME280;39398;48.382;9.802;2022-11-20T02:47:11;93293.72;;;2.68;100.00
53522;BME280;39398;48.382;9.802;2022-11-20T02:48:13;93293.88;;;2.66;100.00
53522;BME280;39398;48.382;9.802;2022-11-20T02:49:14;93296.97;;;2.62;100.00
53522;BME280;39398;48.382;9.802;2022-11-20T02:50:16;93306.44;;;2.71;100.00
53522;BME280;39398;48.382;9.802;2022-11-20T02:51:18;93302.19;;;2.70;100.00
53522;BME280;39398;48.382;9.802;2022-11-20T02:52:19;93297.28;;;2.59;100.00
53522;BME280;39398;48.382;9.802;2022-11-20T02:53:20;93300.81;;;2.41;100.00
53522;BME280;39398;48.382;9.802;2022-11-20T02:54:22;93297.09;;;2.52;100.00
53522;BME280;39398;48.382;9.802;2022-11-20T02:55:25;93306.00;;;2.41;100.00
53522;BME280;39398;48.382;9.802;2022-11-20T02:56:27;93297.44;;;2.57;100.00
53522;BME280;39398;48.382;9.802;2022-11-20T02:57:28;93294.28;;;2.45;100.00
53522;BME280;39398;48.382;9.802;2022-11-20T02:58:30;93290.69;;;2.30;100.00
53522;BME280;39398;48.382;9.802;2022-11-20T02:59:31;93294.53;;;2.18;100.00
53522;BME280;39398;48.382;9.802;2022-11-20T03:00:33;93301.53;;;2.17;100.00
53522;BME280;39398;48.382;9.802;2022-11-20T03:01:34;93299.44;;;2.29;100.00
53522;BME280;39398;48.382;9.802;2022-11-20T03:02:36;93291.44;;;2.22;100.00
53522;BME280;39398;48.382;9.802;2022-11-20T03:03:37;93291.69;;;2.37;100.00
53522;BME280;39398;48.382;9.802;2022-11-20T03:04:39;93296.13;;;2.53;100.00
53522;BME280;39398;48.382;9.802;2022-11-20T03:05:41;93290.88;;;2.45;100.00
53522;BME280;39398;48.382;9.802;2022-11-20T03:06:42;93291.50;;;2.30;100.00
53522;BME280;39398;48.382;9.802;2022-11-20T03:07:43;93296.09;;;2.45;100.00
53522;BME280;39398;48.382;9.802;2022-11-20T03:08:45;93296.22;;;2.35;100.00
53522;BME280;39398;48.382;9.802;2022-11-20T03:09:46;93293.47;;;2.45;100.00
53522;BME280;39398;48.382;9.802;2022-11-20T03:10:49;93292.72;;;2.52;100.00
53522;BME280;39398;48.382;9.802;2022-11-20T03:11:51;93290.91;;;2.53;100.00
53522;BME280;39398;48.382;9.802;2022-11-20T03:12:53;93292.09;;;2.59;100.00
53522;BME280;39398;48.382;9.802;2022-11-20T03:13:55;93288.00;;;2.64;100.00
53522;BME280;39398;48.382;9.802;2022-11-20T03:14:56;93287.47;;;2.44;100.00
53522;BME280;39398;48.382;9.802;2022-11-20T03:15:58;93284.22;;;2.50;100.00
53522;BME280;39398;48.382;9.802;2022-11-20T03:16:59;93287.00;;;2.57;100.00
53522;BME280;39398;48.382;9.802;2022-11-20T03:18:01;93285.22;;;2.58;100.00
53522;BME280;39398;48.382;9.802;2022-11-20T03:19:02;93285.72;;;2.53;100.00
53522;BME280;39398;48.382;9.802;2022-11-20T03:20:05;93285.72;;;2.53;100.00
53522;BME280;39398;48.382;9.802;2022-11-20T03:21:07;93287.31;;;2.54;100.00
53522;BME280;39398;48.382;9.802;2022-11-20T03:22:09;93282.13;;;2.54;100.00
53522;BME280;39398;48.382;9.802;2022-11-20T03:23:10;93283.06;;;2.45;100.00
53522;BME280;39398;48.382;9.802;2022-11-20T03:24:12;93279.34;;;2.47;100.00
53522;BME280;39398;48.382;9.802;2022-11-20T03:25:13;93288.13;;;2.54;100.00
53522;BME280;39398;48.382;9.802;2022-11-20T03:26:18;93279.50;;;2.46;100.00
53522;BME280;39398;48.382;9.802;2022-11-20T03:27:20;93279.69;;;2.52;100.00
53522;BME280;39398;48.382;9.802;2022-11-20T03:28:21;93275.41;;;2.43;100.00
53522;BME280;39398;48.382;9.802;2022-11-20T03:29:23;93273.78;;;2.42;100.00
53522;BME280;39398;48.382;9.802;2022-11-20T03:30:24;93273.44;;;2.45;100.00
53522;BME280;39398;48.382;9.802;2022-11-20T03:31:32;93276.91;;;2.46;100.00
53522;BME280;39398;48.382;9.802;2022-11-20T03:32:34;93278.03;;;2.43;100.00
53522;BME280;39398;48.382;9.802;2022-11-20T03:33:36;93276.41;;;2.50;100.00
53522;BME280;39398;48.382;9.802;2022-11-20T03:34:37;93271.69;;;2.54;100.00
53522;BME280;39398;48.382;9.802;2022-11-20T03:35:38;93273.84;;;2.59;100.00
53522;BME280;39398;48.382;9.802;2022-11-20T03:36:42;93264.69;;;2.54;100.00
53522;BME280;39398;48.382;9.802;2022-11-20T03:37:43;93272.16;;;2.41;100.00
53522;BME280;39398;48.382;9.802;2022-11-20T03:38:45;93277.09;;;2.52;100.00
53522;BME280;39398;48.382;9.802;2022-11-20T03:39:47;93268.63;;;2.59;100.00
53522;BME280;39398;48.382;9.802;2022-11-20T03:40:48;93271.16;;;2.42;100.00
53522;BME280;39398;48.382;9.802;2022-11-20T03:41:51;93269.53;;;2.41;100.00
53522;BME280;39398;48.382;9.802;2022-11-20T03:42:52;93273.94;;;2.41;100.00
53522;BME280;39398;48.382;9.802;2022-11-20T03:43:55;93262.03;;;2.38;100.00
53522;BME280;39398;48.382;9.802;2022-11-20T03:44:57;93268.88;;;2.39;100.00
53522;BME280;39398;48.382;9.802;2022-11-20T03:45:59;93266.78;;;2.43;100.00
53522;BME280;39398;48.382;9.802;2022-11-20T03:47:01;93270.53;;;2.48;100.00
53522;BME280;39398;48.382;9.802;2022-11-20T03:48:03;93264.50;;;2.40;100.00
53522;BME280;39398;48.382;9.802;2022-11-20T03:49:04;93267.91;;;2.40;100.00
53522;BME280;39398;48.382;9.802;2022-11-20T03:50:07;93261.44;;;2.52;100.00
53522;BME280;39398;48.382;9.802;2022-11-20T03:51:10;93268.78;;;2.57;100.00
53522;BME280;39398;48.382;9.802;2022-11-20T03:52:12;93267.94;;;2.48;100.00
53522;BME280;39398;48.382;9.802;2022-11-20T03:53:13;93268.41;;;2.52;100.00
53522;BME280;39398;48.382;9.802;2022-11-20T03:54:15;93265.13;;;2.33;100.00
53522;BME280;39398;48.382;9.802;2022-11-20T03:55:16;93270.16;;;2.35;100.00
53522;BME280;39398;48.382;9.802;2022-11-20T03:56:20;93266.59;;;2.36;100.00
53522;BME280;39398;48.382;9.802;2022-11-20T03:57:24;93258.44;;;2.31;100.00
53522;BME280;39398;48.382;9.802;2022-11-20T03:58:26;93265.88;;;2.18;100.00
53522;BME280;39398;48.382;9.802;2022-11-20T03:59:27;93260.72;;;2.34;100.00
53522;BME280;39398;48.382;9.802;2022-11-20T04:00:28;93257.00;;;2.37;100.00
53522;BME280;39398;48.382;9.802;2022-11-20T04:01:31;93261.41;;;2.44;100.00
53522;BME280;39398;48.382;9.802;2022-11-20T04:02:33;93268.94;;;2.55;100.00
53522;BME280;39398;48.382;9.802;2022-11-20T04:03:35;93253.91;;;2.41;100.00
53522;BME280;39398;48.382;9.802;2022-11-20T04:04:37;93257.50;;;2.40;100.00
53522;BME280;39398;48.382;9.802;2022-11-20T04:05:39;93263.69;;;2.47;100.00
53522;BME280;39398;48.382;9.802;2022-11-20T04:06:40;93263.03;;;2.45;100.00
53522;BME280;39398;48.382;9.802;2022-11-20T04:07:41;93261.41;;;2.44;100.00
53522;BME280;39398;48.382;9.802;2022-11-20T04:08:43;93262.53;;;2.42;100.00
53522;BME280;39398;48.382;9.802;2022-11-20T04:09:50;93259.16;;;2.49;100.00
53522;BME280;39398;48.382;9.802;2022-11-20T04:10:51;93266.00;;;2.50;100.00
53522;BME280;39398;48.382;9.802;2022-11-20T04:11:53;93264.81;;;2.45;100.00
53522;BME280;39398;48.382;9.802;2022-11-20T04:12:55;93257.50;;;2.48;100.00
53522;BME280;39398;48.382;9.802;2022-11-20T04:13:58;93262.84;;;2.39;100.00
53522;BME280;39398;48.382;9.802;2022-11-20T04:15:00;93259.44;;;2.30;100.00
53522;BME280;39398;48.382;9.802;2022-11-20T04:16:02;93256.19;;;2.44;100.00
53522;BME280;39398;48.382;9.802;2022-11-20T04:17:03;93262.84;;;2.39;100.00
53522;BME280;39398;48.382;9.802;2022-11-20T04:18:05;93274.25;;;2.38;100.00
53522;BME280;39398;48.382;9.802;2022-11-20T04:19:10;93273.59;;;2.36;100.00
53522;BME280;39398;48.382;9.802;2022-11-20T04:20:11;93274.69;;;2.25;100.00
53522;BME280;39398;48.382;9.802;2022-11-20T04:21:13;93275.81;;;2.22;100.00
53522;BME280;39398;48.382;9.802;2022-11-20T04:22:14;93278.63;;;2.29;100.00
53522;BME280;39398;48.382;9.802;2022-11-20T04:23:16;93275.69;;;1.90;100.00
53522;BME280;39398;48.382;9.802;2022-11-20T04:24:17;93281.00;;;1.80;100.00
53522;BME280;39398;48.382;9.802;2022-11-20T04:25:18;93278.72;;;2.11;100.00
53522;BME280;39398;48.382;9.802;2022-11-20T04:26:21;93274.81;;;2.15;100.00
53522;BME280;39398;48.382;9.802;2022-11-20T04:27:23;93276.81;;;1.87;100.00
53522;BME280;39398;48.382;9.802;2022-11-20T04:28:26;93274.94;;;2.05;100.00
53522;BME280;39398;48.382;9.802;2022-11-20T04:29:27;93280.38;;;2.20;100.00
53522;BME280;39398;48.382;9.802;2022-11-20T04:30:29;93273.41;;;2.29;100.00
53522;BME280;39398;48.382;9.802;2022-11-20T04:31:33;93273.38;;;2.21;100.00
53522;BME280;39398;48.382;9.802;2022-11-20T04:32:35;93275.06;;;2.30;100.00
53522;BME280;39398;48.382;9.802;2022-11-20T04:33:37;93271.44;;;2.23;100.00
53522;BME280;39398;48.382;9.802;2022-11-20T04:34:38;93268.88;;;2.31;100.00
53522;BME280;39398;48.382;9.802;2022-11-20T04:35:40;93271.59;;;2.21;100.00
53522;BME280;39398;48.382;9.802;2022-11-20T04:36:41;93265.75;;;2.27;100.00
53522;BME280;39398;48.382;9.802;2022-11-20T04:37:43;93266.41;;;2.29;100.00
53522;BME280;39398;48.382;9.802;2022-11-20T04:38:44;93273.41;;;2.29;100.00
53522;BME280;39398;48.382;9.802;2022-11-20T04:39:46;93274.06;;;2.31;100.00
53522;BME280;39398;48.382;9.802;2022-11-20T04:40:47;93272.41;;;2.22;100.00
53522;BME280;39398;48.382;9.802;2022-11-20T04:41:49;93273.06;;;2.24;100.00
53522;BME280;39398;48.382;9.802;2022-11-20T04:42:50;93274.38;;;2.28;100.00
53522;BME280;39398;48.382;9.802;2022-11-20T04:43:54;93274.00;;;2.15;100.00
53522;BME280;39398;48.382;9.802;2022-11-20T04:44:56;93274.81;;;2.15;100.00
53522;BME280;39398;48.382;9.802;2022-11-20T04:45:59;93274.84;;;2.23;100.00
53522;BME280;39398;48.382;9.802;2022-11-20T04:47:01;93276.75;;;2.13;100.00
53522;BME280;39398;48.382;9.802;2022-11-20T04:48:02;93277.31;;;2.25;100.00
53522;BME280;39398;48.382;9.802;2022-11-20T04:49:04;93281.56;;;2.34;100.00
53522;BME280;39398;48.382;9.802;2022-11-20T04:50:06;93288.91;;;2.39;100.00
53522;BME280;39398;48.382;9.802;2022-11-20T04:51:08;93277.03;;;2.44;100.00
53522;BME280;39398;48.382;9.802;2022-11-20T04:52:10;93284.38;;;2.41;100.00
53522;BME280;39398;48.382;9.802;2022-11-20T04:53:11;93279.78;;;2.35;100.00
53522;BME280;39398;48.382;9.802;2022-11-20T04:54:13;93284.00;;;2.36;100.00
53522;BME280;39398;48.382;9.802;2022-11-20T04:55:14;93285.66;;;2.37;100.00
53522;BME280;39398;48.382;9.802;2022-11-20T04:56:16;93283.81;;;2.29;100.00
53522;BME280;39398;48.382;9.802;2022-11-20T04:57:18;93285.50;;;2.38;100.00
53522;BME280;39398;48.382;9.802;2022-11-20T04:58:19;93291.22;;;2.50;100.00
53522;BME280;39398;48.382;9.802;2022-11-20T04:59:22;93284.91;;;2.52;100.00
53522;BME280;39398;48.382;9.802;2022-11-20T05:00:24;93290.06;;;2.44;100.00
53522;BME280;39398;48.382;9.802;2022-11-20T05:01:26;93288.59;;;2.42;100.00
53522;BME280;39398;48.382;9.802;2022-11-20T05:02:28;93283.00;;;2.28;100.00
53522;BME280;39398;48.382;9.802;2022-11-20T05:03:32;93285.66;;;2.37;100.00
53522;BME280;39398;48.382;9.802;2022-11-20T05:04:33;93293.00;;;2.41;100.00
53522;BME280;39398;48.382;9.802;2022-11-20T05:05:35;93286.16;;;2.40;100.00
53522;BME280;39398;48.382;9.802;2022-11-20T05:06:36;93284.38;;;2.41;100.00
53522;BME280;39398;48.382;9.802;2022-11-20T05:07:38;93286.66;;;2.52;100.00
53522;BME280;39398;48.382;9.802;2022-11-20T05:08:40;93282.06;;;2.38;100.00
53522;BME280;39398;48.382;9.802;2022-11-20T05:09:41;93284.63;;;2.21;100.00
53522;BME280;39398;48.382;9.802;2022-11-20T05:10:43;93284.00;;;2.27;100.00
53522;BME280;39398;48.382;9.802;2022-11-20T05:11:44;93286.41;;;2.21;100.00
53522;BME280;39398;48.382;9.802;2022-11-20T05:12:51;93281.38;;;2.27;100.00
53522;BME280;39398;48.382;9.802;2022-11-20T05:13:53;93288.56;;;2.33;100.00
53522;BME280;39398;48.382;9.802;2022-11-20T05:14:56;93285.34;;;2.40;100.00
53522;BME280;39398;48.382;9.802;2022-11-20T05:16:01;93288.72;;;2.32;100.00
53522;BME280;39398;48.382;9.802;2022-11-20T05:17:03;93288.06;;;2.30;100.00
53522;BME280;39398;48.382;9.802;2022-11-20T05:18:04;93285.97;;;2.42;100.00
53522;BME280;39398;48.382;9.802;2022-11-20T05:19:06;93283.06;;;2.37;100.00
53522;BME280;39398;48.382;9.802;2022-11-20T05:20:08;93284.19;;;2.42;100.00
53522;BME280;39398;48.382;9.802;2022-11-20T05:21:11;93284.69;;;2.38;100.00
53522;BME280;39398;48.382;9.802;2022-11-20T05:22:12;93289.72;;;2.39;100.00
53522;BME280;39398;48.382;9.802;2022-11-20T05:23:14;93287.09;;;2.39;100.00
53522;BME280;39398;48.382;9.802;2022-11-20T05:24:15;93285.00;;;2.35;100.00
53522;BME280;39398;48.382;9.802;2022-11-20T05:25:17;93284.13;;;2.26;100.00
53522;BME280;39398;48.382;9.802;2022-11-20T05:26:19;93285.91;;;2.17;100.00
53522;BME280;39398;48.382;9.802;2022-11-20T05:27:21;93285.97;;;2.33;100.00
53522;BME280;39398;48.382;9.802;2022-11-20T05:28:24;93285.25;;;2.23;100.00
53522;BME280;39398;48.382;9.802;2022-11-20T05:29:25;93285.47;;;2.30;100.00
53522;BME280;39398;48.382;9.802;2022-11-20T05:30:28;93276.63;;;2.15;100.00
53522;BME280;39398;48.382;9.802;2022-11-20T05:31:30;93289.13;;;2.11;100.00